Time;durP1;ratioP1;P1;durP2;ratioP2;P2;SDS_P1;SDS_P2;PMS_P1;PMS_P2;Temp;Humidity;BMP_temperature;BMP_pressure;BME280_temperature;BME280_humidity;BME280_pressure;Samples;Min_cycle;Max_cycle;Signal;HPM_P1;HPM_P2
2023/04/04 00:01:08;;;;;;;1999.90;999.90;;;;;;;5.34;46.62;101283.91;5030925;28;20790;-76
2023/04/04 00:03:34;;;;;;;1999.90;999.90;;;;;;;5.32;47.07;101283.28;5046389;28;20399;-76
2023/04/04 00:05:59;;;;;;;1999.90;999.90;;;;;;;5.31;46.91;101284.28;5017489;28;20510;-75
2023/04/04 00:08:24;;;;;;;1999.90;999.90;;;;;;;5.30;46.91;101280.81;5020747;28;20419;-76
2023/04/04 00:10:55;;;;;;;1999.90;999.90;;;;;;;5.29;46.83;101279.13;5031294;28;20407;-76
2023/04/04 00:13:20;;;;;;;1999.90;999.90;;;;;;;5.24;46.37;101276.16;5021634;28;20401;-76
2023/04/04 00:15:45;;;;;;;1999.90;999.90;;;;;;;5.24;47.05;101274.31;5010818;28;20400;-76
2023/04/04 00:18:11;;;;;;;1999.90;999.90;;;;;;;5.21;46.94;101266.63;5028423;28;20494;-75
2023/04/04 00:20:36;;;;;;;1999.90;999.90;;;;;;;5.24;47.05;101260.88;5025624;28;20888;-75
2023/04/04 00:23:02;;;;;;;1999.90;999.90;;;;;;;5.22;47.39;101264.78;5010635;28;20396;-75
2023/04/04 00:25:27;;;;;;;1999.90;999.90;;;;;;;5.17;47.29;101264.53;5030787;28;20537;-75
2023/04/04 00:27:52;;;;;;;1999.90;999.90;;;;;;;5.16;47.46;101260.19;5030090;28;20441;-74
2023/04/04 00:30:17;;;;;;;1999.90;999.90;;;;;;;5.20;47.39;101267.66;5027570;28;20451;-74
2023/04/04 00:32:43;;;;;;;1999.90;999.90;;;;;;;5.10;47.06;101259.06;5019506;28;20406;-74
2023/04/04 00:35:08;;;;;;;1999.90;999.90;;;;;;;5.02;47.66;101259.19;5038236;28;20413;-74
2023/04/04 00:37:34;;;;;;;1999.90;999.90;;;;;;;4.97;47.67;101258.09;5023417;28;20867;-74
2023/04/04 00:40:00;;;;;;;1999.90;999.90;;;;;;;4.95;47.80;101265.50;5027712;28;20487;-74
2023/04/04 00:42:26;;;;;;;1999.90;999.90;;;;;;;4.93;47.70;101254.13;5033536;28;20498;-73
2023/04/04 00:44:52;;;;;;;1999.90;999.90;;;;;;;4.89;47.67;101271.63;5019692;28;20409;-74
2023/04/04 00:47:21;;;;;;;1999.90;999.90;;;;;;;4.85;48.25;101262.28;5025873;28;20407;-73
2023/04/04 00:49:46;;;;;;;1999.90;999.90;;;;;;;4.84;48.14;101253.38;5028504;28;20408;-74
2023/04/04 00:52:12;;;;;;;1999.90;999.90;;;;;;;4.83;48.43;101258.97;5025302;28;20910;-74
2023/04/04 00:54:37;;;;;;;1999.90;999.90;;;;;;;4.83;48.57;101257.13;5011921;28;20461;-74
2023/04/04 00:57:05;;;;;;;1999.90;999.90;;;;;;;4.86;48.57;101258.56;5011535;28;20659;-74
2023/04/04 00:59:31;;;;;;;1999.90;999.90;;;;;;;4.89;48.14;101252.84;5028238;28;20421;-74
2023/04/04 01:01:57;;;;;;;1999.90;999.90;;;;;;;4.88;48.36;101252.00;5025826;28;20572;-73
2023/04/04 01:04:22;;;;;;;1999.90;999.90;;;;;;;4.77;48.49;101262.41;5027158;28;20424;-74
2023/04/04 01:06:48;;;;;;;1999.90;999.90;;;;;;;4.76;48.60;101256.19;5024255;28;20411;-74
2023/04/04 01:09:14;;;;;;;1999.90;999.90;;;;;;;4.70;48.80;101254.25;5025797;28;20418;-74
2023/04/04 01:11:40;;;;;;;1999.90;999.90;;;;;;;4.69;48.75;101252.59;5025911;28;20441;-74
2023/04/04 01:14:05;;;;;;;1999.90;999.90;;;;;;;4.70;49.23;101249.72;5011448;28;20396;-74
2023/04/04 01:16:31;;;;;;;1999.90;999.90;;;;;;;4.64;49.04;101249.66;5026610;28;20476;-74
2023/04/04 01:18:56;;;;;;;1999.90;999.90;;;;;;;4.61;49.18;101250.03;5026031;28;20430;-73
2023/04/04 01:21:22;;;;;;;1999.90;999.90;;;;;;;4.64;49.10;101246.97;5029491;28;20411;-74
2023/04/04 01:23:59;;;;;;;1999.90;999.90;;;;;;;4.63;48.81;101247.97;5023863;28;20400;-74
2023/04/04 01:26:25;;;;;;;1999.90;999.90;;;;;;;4.50;49.73;101248.63;5038835;28;20445;-74
2023/04/04 01:28:55;;;;;;;1999.90;999.90;;;;;;;4.51;49.51;101254.84;5030744;28;20510;-74
2023/04/04 01:31:41;;;;;;;1999.90;999.90;;;;;;;4.57;49.64;101243.34;5026360;28;20499;-74
2023/04/04 01:34:15;;;;;;;1999.90;999.90;;;;;;;4.53;49.71;101239.38;5024414;28;20877;-73
2023/04/04 01:36:55;;;;;;;1999.90;999.90;;;;;;;4.56;49.61;101239.00;5034403;28;20399;-73
2023/04/04 01:39:30;;;;;;;1999.90;999.90;;;;;;;4.51;49.65;101242.22;5043188;28;20815;-73
2023/04/04 01:41:58;;;;;;;1999.90;999.90;;;;;;;4.43;49.80;101230.78;5029896;28;20416;-73
2023/04/04 01:44:23;;;;;;;1999.90;999.90;;;;;;;4.45;49.62;101234.94;5044635;28;20388;-73
2023/04/04 01:46:55;;;;;;;1999.90;999.90;;;;;;;4.43;49.87;101238.81;5015990;28;20427;-74
2023/04/04 01:49:22;;;;;;;1999.90;999.90;;;;;;;4.48;49.71;101237.22;5023777;28;20412;-73
2023/04/04 01:51:49;;;;;;;1999.90;999.90;;;;;;;4.51;49.77;101236.84;5014477;28;20389;-73
2023/04/04 01:54:15;;;;;;;1999.90;999.90;;;;;;;4.52;50.08;101243.91;5029155;28;20498;-74
2023/04/04 01:56:41;;;;;;;1999.90;999.90;;;;;;;4.50;50.09;101242.44;5033274;28;20758;-73
2023/04/04 01:59:06;;;;;;;1999.90;999.90;;;;;;;4.43;50.10;101234.28;5033190;28;20470;-73
2023/04/04 02:01:32;;;;;;;1999.90;999.90;;;;;;;4.45;50.26;101237.59;5023838;28;20404;-74
2023/04/04 02:03:57;;;;;;;1999.90;999.90;;;;;;;4.46;49.99;101241.13;5014785;28;20770;-74
2023/04/04 02:06:23;;;;;;;1999.90;999.90;;;;;;;4.43;50.15;101233.44;5030178;28;20418;-73
2023/04/04 02:08:48;;;;;;;1999.90;999.90;;;;;;;4.39;50.28;101234.84;5024026;28;20435;-73
2023/04/04 02:11:13;;;;;;;1999.90;999.90;;;;;;;4.35;50.19;101238.91;5032541;28;20403;-73
2023/04/04 02:13:43;;;;;;;1999.90;999.90;;;;;;;4.37;50.71;101236.88;5021147;28;20769;-73
2023/04/04 02:16:08;;;;;;;1999.90;999.90;;;;;;;4.35;50.37;101231.69;5030318;28;20529;-74
2023/04/04 02:18:34;;;;;;;1999.90;999.90;;;;;;;4.30;50.52;101244.84;5021342;28;21128;-73
2023/04/04 02:21:00;;;;;;;1999.90;999.90;;;;;;;4.30;50.58;101239.47;5039942;28;20389;-73
2023/04/04 02:23:25;;;;;;;1999.90;999.90;;;;;;;4.28;50.46;101235.31;5029011;28;20389;-73
2023/04/04 02:25:50;;;;;;;1999.90;999.90;;;;;;;4.30;50.51;101238.63;5041337;28;20827;-73
2023/04/04 02:28:16;;;;;;;1999.90;999.90;;;;;;;4.27;50.39;101237.16;5024169;28;20410;-73
2023/04/04 02:30:41;;;;;;;178.27;169.97;;;;;;;4.28;50.48;101233.44;5032916;28;20422;-73
2023/04/04 02:33:07;;;;;;;177.10;168.73;;;;;;;4.29;50.25;101228.91;5028562;28;20801;-73
2023/04/04 02:35:32;;;;;;;180.57;171.98;;;;;;;4.25;50.41;101227.66;5026608;28;20442;-73
2023/04/04 02:37:57;;;;;;;429.70;404.67;;;;;;;4.22;50.76;101228.81;5020152;28;20442;-73
2023/04/04 02:40:22;;;;;;;309.70;278.13;;;;;;;4.19;50.62;101232.72;5019407;28;20413;-73
2023/04/04 02:42:48;;;;;;;206.80;191.27;;;;;;;4.12;50.77;101226.41;5013456;28;20399;-73
2023/04/04 02:45:13;;;;;;;243.47;223.40;;;;;;;4.09;50.86;101226.78;5027082;28;20441;-73
2023/04/04 02:47:39;;;;;;;393.40;334.60;;;;;;;4.16;50.83;101229.56;5020940;28;20494;-73
2023/04/04 02:50:05;;;;;;;659.85;454.10;;;;;;;4.17;50.92;101225.88;5026790;28;20884;-73
2023/04/04 02:52:31;;;;;;;431.35;406.60;;;;;;;4.12;50.72;101229.09;5022292;28;20395;-73
2023/04/04 02:54:57;;;;;;;1999.90;944.00;;;;;;;4.14;51.03;101229.75;5035045;28;20828;-73
2023/04/04 02:57:22;;;;;;;1999.90;938.30;;;;;;;4.14;51.42;101232.44;5026327;28;20485;-73
2023/04/04 02:59:47;;;;;;;1599.37;775.83;;;;;;;4.17;51.27;101233.91;5028500;28;20508;-73
2023/04/04 03:02:12;;;;;;;1553.25;786.00;;;;;;;4.06;51.35;101229.84;5022075;28;20407;-73
2023/04/04 03:04:38;;;;;;;1567.53;779.67;;;;;;;4.03;51.39;101230.22;5021438;28;20392;-73
2023/04/04 03:07:03;;;;;;;1993.50;999.90;;;;;;;4.05;51.40;101228.16;5027566;28;20463;-73
2023/04/04 03:09:29;;;;;;;1818.15;999.90;;;;;;;4.07;51.47;101228.84;5029573;28;20871;-73
2023/04/04 03:11:54;;;;;;;1789.77;999.90;;;;;;;4.04;51.23;101229.19;5024800;28;20429;-73
2023/04/04 03:14:20;;;;;;;1474.93;999.90;;;;;;;3.95;51.29;101224.91;5011980;28;20412;-73
2023/04/04 03:16:48;;;;;;;1105.13;977.92;;;;;;;3.97;51.56;101228.25;5027056;28;20448;-73
2023/04/04 03:19:13;;;;;;;1052.82;937.55;;;;;;;4.02;51.43;101220.50;5031446;28;20497;-73
2023/04/04 03:21:38;;;;;;;1076.70;935.00;;;;;;;4.04;51.36;101228.38;5026229;28;20405;-73
2023/04/04 03:24:04;;;;;;;1010.67;913.23;;;;;;;4.01;51.34;101237.63;5021675;28;20553;-73
2023/04/04 03:26:29;;;;;;;914.57;831.03;;;;;;;3.98;51.58;101224.56;5030726;28;20431;-73
2023/04/04 03:28:54;;;;;;;774.50;708.87;;;;;;;3.97;51.33;101230.09;5044472;28;20411;-73
2023/04/04 03:31:20;;;;;;;714.33;655.47;;;;;;;3.90;51.37;101234.53;5017689;28;20399;-73
2023/04/04 03:33:45;;;;;;;415.97;387.63;;;;;;;3.89;51.67;101233.69;5023761;28;20451;-73
2023/04/04 03:36:11;;;;;;;251.00;236.30;;;;;;;3.89;51.73;101232.84;5025202;28;20411;-73
2023/04/04 03:38:37;;;;;;;246.93;231.95;;;;;;;3.89;51.41;101228.34;5024365;28;20417;-73
2023/04/04 03:41:04;;;;;;;338.30;315.60;;;;;;;3.77;51.32;101226.28;5012418;28;20790;-73
2023/04/04 03:43:31;;;;;;;143.30;134.53;;;;;;;3.65;51.83;101226.72;5012436;28;20749;-73
2023/04/04 03:46:03;;;;;;;70.32;66.05;;;;;;;3.73;51.82;101228.50;5026501;28;20411;-73
2023/04/04 03:48:29;;;;;;;10.20;9.60;;;;;;;3.82;51.81;101230.06;5027538;28;20397;-73
2023/04/04 03:50:57;;;;;;;18.00;17.07;;;;;;;3.75;51.96;101229.16;5034796;28;20404;-73
2023/04/04 03:53:24;;;;;;;22.80;21.30;;;;;;;3.69;51.84;101229.88;5034934;28;20870;-73
2023/04/04 03:55:49;;;;;;;6.80;6.40;;;;;;;3.64;52.19;101233.09;5022880;28;20404;-73
2023/04/04 03:58:15;;;;;;;2.72;2.53;;;;;;;3.67;51.99;101240.78;5031956;28;20441;-76
2023/04/04 04:00:40;;;;;;;4.30;2.70;;;;;;;3.71;51.98;101243.94;5021988;28;20475;-73
2023/04/04 04:03:05;;;;;;;2.23;1.50;;;;;;;3.74;52.16;101238.22;5046321;28;20474;-73
2023/04/04 04:05:31;;;;;;;4.97;1.55;;;;;;;3.71;52.08;101235.91;5019588;28;20408;-73
2023/04/04 04:07:56;;;;;;;3.13;1.50;;;;;;;3.66;51.91;101236.44;5015097;28;20422;-73
2023/04/04 04:10:21;;;;;;;1.87;1.53;;;;;;;3.70;52.00;101244.09;5029468;28;20402;-73
2023/04/04 04:12:47;;;;;;;3.58;1.30;;;;;;;3.66;51.98;101247.16;5011843;28;20385;-73
2023/04/04 04:15:12;;;;;;;3.53;1.30;;;;;;;3.67;51.91;101240.78;5021727;28;20410;-73
2023/04/04 04:17:40;;;;;;;3.70;1.67;;;;;;;3.66;51.90;101238.28;5029777;28;20395;-73
2023/04/04 04:20:09;;;;;;;2.50;1.50;;;;;;;3.60;51.75;101241.69;5028040;28;20484;-73
2023/04/04 04:22:35;;;;;;;2.93;1.70;;;;;;;3.48;51.86;101246.66;5017872;28;20814;-73
2023/04/04 04:25:00;;;;;;;1.40;1.30;;;;;;;3.52;51.89;101241.75;5022386;28;20499;-73
2023/04/04 04:27:26;;;;;;;2.33;1.40;;;;;;;3.45;51.57;101246.16;5012182;28;20864;-73
2023/04/04 04:29:51;;;;;;;2.40;1.50;;;;;;;3.35;52.08;101240.22;5028112;28;20445;-73
2023/04/04 04:32:17;;;;;;;2.73;1.40;;;;;;;3.40;52.05;101243.19;5016574;28;20431;-73
2023/04/04 04:34:43;;;;;;;1.45;1.20;;;;;;;3.41;52.09;101244.84;5024557;28;20408;-73
2023/04/04 04:37:08;;;;;;;5.43;2.10;;;;;;;3.40;52.07;101249.38;5019508;28;20797;-73
2023/04/04 04:39:34;;;;;;;2.63;1.67;;;;;;;3.47;52.12;101249.50;5027073;28;20923;-73
2023/04/04 04:42:00;;;;;;;2.95;1.33;;;;;;;3.52;52.25;101258.66;5028136;28;20482;-73
2023/04/04 04:44:25;;;;;;;6.30;1.97;;;;;;;3.50;52.04;101247.28;5019075;28;20440;-73
2023/04/04 04:46:51;;;;;;;1.75;1.65;;;;;;;3.46;52.44;101247.81;5031544;28;20425;-76
2023/04/04 04:49:16;;;;;;;3.07;1.37;;;;;;;3.42;52.05;101247.38;5024299;28;20874;-73
2023/04/04 04:51:41;;;;;;;2.60;1.63;;;;;;;3.37;52.61;101247.06;5032860;28;20404;-73
2023/04/04 04:54:07;;;;;;;4.20;2.25;;;;;;;3.37;52.35;101252.41;5019952;28;20476;-73
2023/04/04 04:56:32;;;;;;;11.10;4.85;;;;;;;3.41;52.21;101245.69;5015381;28;20759;-73
2023/04/04 04:58:58;;;;;;;4.90;2.67;;;;;;;3.37;52.71;101243.53;5017557;28;20430;-73
2023/04/04 05:01:23;;;;;;;2.87;1.80;;;;;;;3.40;52.41;101248.53;5013031;28;20412;-73
2023/04/04 05:03:48;;;;;;;1.48;1.38;;;;;;;3.40;52.72;101254.72;5026438;28;20439;-73
2023/04/04 05:06:14;;;;;;;1.90;1.70;;;;;;;3.23;52.90;101250.50;5011602;28;20487;-73
2023/04/04 05:08:39;;;;;;;4.67;1.30;;;;;;;3.25;52.99;101253.84;5025753;28;20402;-73
2023/04/04 05:11:04;;;;;;;2.67;1.80;;;;;;;3.25;52.86;101251.16;5018899;28;20411;-73
2023/04/04 05:13:30;;;;;;;2.40;1.63;;;;;;;3.26;53.25;101249.34;5029626;28;20420;-73
2023/04/04 05:15:55;;;;;;;2.80;1.63;;;;;;;3.27;52.84;101256.34;5029946;28;20442;-73
2023/04/04 05:18:21;;;;;;;6.28;1.88;;;;;;;3.25;53.13;101261.88;5023559;28;20400;-73
2023/04/04 05:20:51;;;;;;;4.43;1.75;;;;;;;3.30;53.21;101264.84;5034774;28;20499;-73
2023/04/04 05:23:17;;;;;;;4.55;1.88;;;;;;;3.19;53.34;101261.75;5031195;28;20463;-73
2023/04/04 05:25:42;;;;;;;5.37;2.03;;;;;;;3.21;53.15;101259.72;5025442;28;20409;-73
2023/04/04 05:28:07;;;;;;;3.23;2.27;;;;;;;3.23;53.16;101257.72;5024119;28;20406;-73
2023/04/04 05:30:33;;;;;;;8.90;2.80;;;;;;;3.16;53.26;101260.28;5031249;28;20402;-74
2023/04/04 05:32:58;;;;;;;15.73;3.07;;;;;;;3.25;53.01;101263.72;5047790;28;20398;-74
2023/04/04 05:35:24;;;;;;;10.80;2.13;;;;;;;3.30;53.25;101256.81;5033913;28;20395;-73
2023/04/04 05:37:50;;;;;;;3.78;1.90;;;;;;;3.28;53.16;101266.88;5025344;28;20906;-74
2023/04/04 05:40:15;;;;;;;6.20;2.20;;;;;;;3.22;53.49;101256.03;5022001;28;20403;-74
2023/04/04 05:42:41;;;;;;;7.27;2.60;;;;;;;3.28;53.44;101258.00;5017547;28;20748;-73
2023/04/04 05:45:07;;;;;;;15.30;3.53;;;;;;;3.35;53.02;101267.84;5014922;28;20917;-74
2023/04/04 05:47:32;;;;;;;12.65;2.30;;;;;;;3.33;53.26;101263.66;5032778;28;20533;-73
2023/04/04 05:49:58;;;;;;;8.87;2.03;;;;;;;3.39;52.82;101265.66;5030951;28;20915;-74
2023/04/04 05:52:23;;;;;;;8.63;1.93;;;;;;;3.43;52.86;101265.09;5018627;28;20462;-74
2023/04/04 05:54:48;;;;;;;7.50;1.60;;;;;;;3.42;52.89;101270.63;5029317;28;20734;-74
2023/04/04 05:57:13;;;;;;;5.90;1.77;;;;;;;3.45;52.62;101267.59;5029470;28;20407;-74
2023/04/04 05:59:39;;;;;;;1.87;1.53;;;;;;;3.52;52.43;101273.91;5029786;28;20425;-74
2023/04/04 06:02:04;;;;;;;3.77;1.83;;;;;;;3.58;52.54;101268.69;5015885;28;20408;-74
2023/04/04 06:04:29;;;;;;;9.03;1.57;;;;;;;3.80;52.02;101269.66;5025093;28;21020;-73
2023/04/04 06:06:54;;;;;;;2.10;1.20;;;;;;;3.91;51.81;101269.22;5014231;28;20459;-73
2023/04/04 06:09:20;;;;;;;3.63;1.63;;;;;;;4.00;51.40;101269.97;5020909;28;20870;-74
2023/04/04 06:11:45;;;;;;;3.42;1.60;;;;;;;4.05;51.39;101268.41;5033151;28;20495;-74
2023/04/04 06:14:10;;;;;;;5.00;1.50;;;;;;;4.05;51.58;101265.72;5033573;28;20467;-74
2023/04/04 06:16:36;;;;;;;4.57;1.60;;;;;;;4.02;50.99;101266.09;5023475;28;20412;-73
2023/04/04 06:19:01;;;;;;;6.30;1.92;;;;;;;4.08;50.99;101276.06;5023266;28;20423;-75
2023/04/04 06:21:26;;;;;;;2.57;1.57;;;;;;;4.10;51.12;101276.75;5023267;28;20904;-75
2023/04/04 06:23:52;;;;;;;5.83;1.90;;;;;;;4.07;50.64;101268.22;5017585;28;20413;-75
2023/04/04 06:26:18;;;;;;;2.37;1.60;;;;;;;4.16;50.84;101269.81;5030122;28;20465;-75
2023/04/04 06:28:50;;;;;;;3.42;1.60;;;;;;;4.19;51.05;101269.44;5023220;28;20951;-73
2023/04/04 06:31:16;;;;;;;5.18;2.08;;;;;;;4.30;50.73;101271.69;5020442;28;20411;-74
2023/04/04 06:33:41;;;;;;;3.13;1.38;;;;;;;4.39;50.48;101275.09;5026570;28;20433;-76
2023/04/04 06:36:06;;;;;;;4.83;2.10;;;;;;;4.42;50.41;101282.78;5029479;28;20420;-73
2023/04/04 06:38:32;;;;;;;2.20;2.00;;;;;;;4.59;50.07;101276.19;5018888;28;20460;-75
2023/04/04 06:40:57;;;;;;;6.78;3.15;;;;;;;4.58;49.78;101275.38;5030886;28;20413;-73
2023/04/04 06:43:22;;;;;;;9.23;1.80;;;;;;;4.58;50.33;101274.53;5025550;28;20399;-73
2023/04/04 06:45:48;;;;;;;14.63;2.57;;;;;;;4.65;49.93;101275.44;5015598;28;20477;-73
2023/04/04 06:48:13;;;;;;;7.87;1.60;;;;;;;4.67;50.02;101270.75;5024144;28;20496;-73
2023/04/04 06:50:39;;;;;;;3.20;1.88;;;;;;;4.63;49.75;101281.03;5037196;28;20429;-73
2023/04/04 06:53:05;;;;;;;3.10;1.77;;;;;;;4.60;49.61;101276.03;5013400;28;20439;-73
2023/04/04 06:55:32;;;;;;;12.00;2.20;;;;;;;4.60;49.50;101275.19;5020426;28;20836;-73
2023/04/04 06:57:57;;;;;;;9.15;1.95;;;;;;;4.48;49.60;101272.13;5029676;28;20441;-73
2023/04/04 07:00:22;;;;;;;2.47;1.50;;;;;;;4.48;49.86;101271.31;5031175;28;20797;-73
2023/04/04 07:02:48;;;;;;;5.63;2.23;;;;;;;4.55;49.34;101273.06;5019841;28;20388;-73
2023/04/04 07:05:16;;;;;;;7.33;1.80;;;;;;;4.53;49.46;101277.78;5027891;28;20394;-73
2023/04/04 07:07:41;;;;;;;3.75;1.90;;;;;;;4.73;48.88;101272.69;5021498;28;20439;-74
2023/04/04 07:10:07;;;;;;;4.63;1.43;;;;;;;4.62;48.61;101265.09;5029839;28;20466;-73
2023/04/04 07:12:32;;;;;;;4.90;2.10;;;;;;;4.69;48.68;101269.53;5020414;28;20392;-74
2023/04/04 07:14:58;;;;;;;2.27;1.30;;;;;;;4.78;48.46;101267.56;5027862;28;20537;-74
2023/04/04 07:17:24;;;;;;;2.30;1.80;;;;;;;4.90;48.45;101276.00;5017000;28;20748;-74
2023/04/04 07:19:49;;;;;;;4.28;2.00;;;;;;;5.26;47.23;101268.75;5034651;28;20409;-74
2023/04/04 07:22:14;;;;;;;2.43;1.83;;;;;;;5.78;45.83;101272.97;5015680;28;20411;-75
2023/04/04 07:24:41;;;;;;;4.83;2.80;;;;;;;6.30;44.71;101264.50;5022695;28;20793;-74
2023/04/04 07:27:06;;;;;;;6.50;2.08;;;;;;;6.15;44.85;101270.84;5033590;28;20423;-75
2023/04/04 07:29:31;;;;;;;16.42;15.48;;;;;;;5.64;45.44;101272.03;5022240;28;20466;-76
2023/04/04 07:31:57;;;;;;;69.03;65.33;;;;;;;5.41;46.00;101266.00;5033762;28;21001;-76
2023/04/04 07:34:22;;;;;;;332.33;312.07;;;;;;;5.33;46.23;101261.59;5032593;28;20406;-76
2023/04/04 07:36:47;;;;;;;229.93;215.40;;;;;;;5.28;46.49;101255.97;5027592;28;20403;-77
2023/04/04 07:39:13;;;;;;;385.17;361.83;;;;;;;5.27;46.69;101262.34;5015733;28;20414;-76
2023/04/04 07:41:38;;;;;;;782.90;721.90;;;;;;;5.30;47.06;101255.78;5021299;28;20385;-77
2023/04/04 07:44:03;;;;;;;497.00;464.83;;;;;;;5.34;47.09;101254.34;5025758;28;20913;-76
2023/04/04 07:46:28;;;;;;;1023.83;936.07;;;;;;;5.37;46.52;101248.63;5041016;28;20886;-76
2023/04/04 07:48:54;;;;;;;1215.63;999.90;;;;;;;5.33;46.60;101255.41;5021852;28;20414;-76
2023/04/04 07:51:27;;;;;;;1999.90;999.90;;;;;;;5.33;46.15;101248.16;5023498;28;20408;-76
2023/04/04 07:53:53;;;;;;;1999.90;999.90;;;;;;;5.38;46.25;101258.31;5027762;28;20418;-76
2023/04/04 07:56:18;;;;;;;1999.90;999.90;;;;;;;5.43;45.63;101245.16;5020772;28;20399;-74
2023/04/04 07:58:43;;;;;;;1862.17;999.90;;;;;;;5.49;45.40;101255.13;5020713;28;20423;-74
2023/04/04 08:01:08;;;;;;;1276.03;811.37;;;;;;;5.47;45.39;101252.63;5021560;28;20446;-74
2023/04/04 08:03:34;;;;;;;1929.40;999.90;;;;;;;5.51;45.54;101240.47;5024475;28;20405;-74
2023/04/04 08:05:59;;;;;;;1277.77;802.13;;;;;;;5.58;45.78;101249.44;5023027;28;20468;-74
2023/04/04 08:08:24;;;;;;;1169.27;730.20;;;;;;;5.66;45.20;101251.16;5025285;28;20415;-74
2023/04/04 08:10:50;;;;;;;1999.90;999.90;;;;;;;5.66;45.43;101253.84;5021971;28;20782;-75
2023/04/04 08:13:15;;;;;;;1999.90;999.90;;;;;;;5.73;45.27;101249.34;5032742;28;20962;-74
2023/04/04 08:15:40;;;;;;;1999.90;999.90;;;;;;;5.86;45.04;101251.38;5029185;28;20403;-75
2023/04/04 08:18:06;;;;;;;1999.90;999.90;;;;;;;6.01;45.04;101250.25;5020412;28;20406;-74
2023/04/04 08:20:31;;;;;;;1999.90;999.90;;;;;;;6.07;44.44;101248.59;5035158;28;20503;-74
2023/04/04 08:22:57;;;;;;;1999.90;999.90;;;;;;;6.16;43.74;101248.25;5021628;28;20402;-74
2023/04/04 08:25:23;;;;;;;1999.90;999.90;;;;;;;6.18;43.56;101245.38;5018087;28;20888;-74
2023/04/04 08:27:48;;;;;;;1999.90;999.90;;;;;;;6.31;43.46;101258.09;5027747;28;20392;-74
2023/04/04 08:30:14;;;;;;;1999.90;999.90;;;;;;;6.48;43.12;101254.91;5019830;28;20390;-74
2023/04/04 08:32:40;;;;;;;1999.90;999.90;;;;;;;6.63;43.27;101247.50;5022754;28;20411;-74
2023/04/04 08:35:06;;;;;;;1999.90;999.90;;;;;;;6.74;43.55;101259.56;5034673;28;20755;-74
2023/04/04 08:37:31;;;;;;;1999.90;999.90;;;;;;;6.76;43.19;101254.81;5026557;28;20418;-74
2023/04/04 08:39:57;;;;;;;1999.90;999.90;;;;;;;6.72;42.49;101256.22;5011135;28;20397;-74
2023/04/04 08:42:25;;;;;;;1999.90;999.90;;;;;;;6.79;42.75;101257.09;5016289;28;20407;-73
2023/04/04 08:44:52;;;;;;;1999.90;999.90;;;;;;;6.93;41.68;101258.00;5028130;28;20495;-73
2023/04/04 08:47:20;;;;;;;1999.90;999.90;;;;;;;7.04;42.12;101255.56;5020075;28;20903;-74
2023/04/04 08:49:48;;;;;;;1999.90;999.90;;;;;;;7.04;41.28;101257.41;5024415;28;20420;-74
2023/04/04 08:52:20;;;;;;;1999.90;999.90;;;;;;;7.02;41.74;101259.47;5023621;28;20679;-75
2023/04/04 08:54:46;;;;;;;1999.90;999.90;;;;;;;7.21;41.75;101258.72;5027456;28;20399;-75
2023/04/04 08:57:12;;;;;;;1999.90;999.90;;;;;;;7.43;41.56;101243.19;5019090;28;20811;-75
2023/04/04 08:59:38;;;;;;;1999.90;999.90;;;;;;;7.63;40.99;101258.38;5030993;28;20399;-74
2023/04/04 09:02:14;;;;;;;1999.90;999.90;;;;;;;7.81;40.43;101253.19;5019566;28;20404;-74
2023/04/04 09:04:41;;;;;;;1999.90;999.90;;;;;;;8.16;40.06;101250.28;5017546;28;20911;-74
2023/04/04 09:07:08;;;;;;;1999.90;999.90;;;;;;;8.64;39.47;101257.03;5024396;28;20818;-75
2023/04/04 09:09:34;;;;;;;1999.90;999.90;;;;;;;8.94;39.58;101249.22;5019797;28;20415;-74
2023/04/04 09:12:00;;;;;;;1999.90;999.90;;;;;;;9.11;38.40;101245.00;5029905;28;20398;-75
2023/04/04 09:14:28;;;;;;;1999.90;999.90;;;;;;;9.38;37.72;101243.78;5033112;28;20407;-73
2023/04/04 09:16:53;;;;;;;378.90;360.48;;;;;;;9.70;37.13;101250.03;5027140;28;20404;-73
2023/04/04 09:19:19;;;;;;;331.93;316.40;;;;;;;9.90;37.25;101237.16;5037903;28;20426;-73
2023/04/04 09:21:48;;;;;;;246.70;235.43;;;;;;;10.25;36.86;101232.06;5027504;28;20399;-73
2023/04/04 09:24:14;;;;;;;63.20;60.20;;;;;;;10.39;36.38;101238.16;5018382;28;20397;-73
2023/04/04 09:26:50;;;;;;;15.63;14.50;;;;;;;10.22;35.50;101237.91;5014816;28;20425;-72
2023/04/04 09:29:20;;;;;;;2.45;1.40;;;;;;;10.23;36.57;101247.72;5032302;28;20391;-73
2023/04/04 09:31:49;;;;;;;9.53;2.57;;;;;;;10.63;35.47;101237.28;5034728;28;20384;-73
2023/04/04 09:34:17;;;;;;;3.67;1.80;;;;;;;10.65;35.47;101235.16;5030211;28;20919;-73
2023/04/04 09:36:46;;;;;;;2.72;1.75;;;;;;;11.24;34.71;101241.69;5027778;28;20401;-72
2023/04/04 09:39:15;;;;;;;4.20;1.80;;;;;;;11.67;33.89;101228.72;5020384;28;20392;-72
2023/04/04 09:41:41;;;;;;;3.25;1.45;;;;;;;12.16;33.42;101229.38;5025151;28;20389;-72
2023/04/04 09:44:09;;;;;;;5.13;2.17;;;;;;;12.83;32.56;101233.31;5014741;28;20396;-72
2023/04/04 09:46:36;;;;;;;4.55;2.60;;;;;;;13.39;31.21;101236.09;5030680;28;20743;-73
2023/04/04 09:49:02;;;;;;;4.67;2.43;;;;;;;13.58;31.24;101233.97;5020125;28;20410;-73
2023/04/04 09:51:37;;;;;;;2.13;1.95;;;;;;;14.00;30.35;101220.75;5040209;28;20760;-73
2023/04/04 09:54:05;;;;;;;4.75;2.08;;;;;;;14.28;29.79;101231.56;5031457;28;20397;-73
2023/04/04 09:56:32;;;;;;;2.15;1.70;;;;;;;14.33;29.76;101228.94;5030375;28;20894;-72
2023/04/04 09:58:59;;;;;;;3.13;2.05;;;;;;;14.35;30.16;101234.97;5020807;28;20423;-73
2023/04/04 10:01:24;;;;;;;7.10;2.25;;;;;;;15.32;27.89;101234.25;5023939;28;20399;-73
2023/04/04 10:03:53;;;;;;;4.75;1.60;;;;;;;16.49;27.07;101232.25;5025894;28;20407;-73
2023/04/04 10:06:19;;;;;;;2.22;1.73;;;;;;;17.45;25.82;101224.38;5031927;28;20443;-74
2023/04/04 10:08:45;;;;;;;4.05;1.45;;;;;;;18.02;25.35;101237.03;5029828;28;20394;-73
2023/04/04 10:11:11;;;;;;;6.20;1.85;;;;;;;18.48;24.46;101232.31;5024413;28;20431;-73
2023/04/04 10:13:40;;;;;;;2.30;1.40;;;;;;;18.86;23.20;101242.66;5026849;28;20432;-73
2023/04/04 10:16:06;;;;;;;3.83;1.80;;;;;;;19.39;22.28;101242.94;5016646;28;20458;-73
2023/04/04 10:18:33;;;;;;;2.15;1.65;;;;;;;20.18;21.90;101234.38;5034857;28;20497;-73
2023/04/04 10:21:01;;;;;;;3.20;1.55;;;;;;;21.01;21.82;101239.53;5024411;28;20401;-73
2023/04/04 10:23:27;;;;;;;1.90;1.60;;;;;;;21.50;21.33;101242.72;5027547;28;20415;-73
2023/04/04 10:25:57;;;;;;;2.80;1.52;;;;;;;21.77;20.01;101239.25;5017421;28;20978;-73
2023/04/04 10:28:23;;;;;;;2.53;1.60;;;;;;;22.27;20.50;101234.00;5028147;28;20475;-72
2023/04/04 10:31:14;;;;;;;3.13;1.80;;;;;;;22.42;19.13;101231.81;5041150;28;20402;-73
2023/04/04 10:34:15;;;;;;;3.28;1.80;;;;;;;22.59;19.12;101228.44;5015092;28;20900;-73
2023/04/04 10:36:50;;;;;;;2.08;1.52;;;;;;;22.98;18.47;101230.72;5002357;28;20889;-73
2023/04/04 10:39:28;;;;;;;2.60;1.77;;;;;;;23.39;18.48;101225.91;5010543;28;20413;-73
2023/04/04 10:41:55;;;;;;;2.25;1.80;;;;;;;23.70;18.40;101228.81;5017239;28;20399;-73
2023/04/04 10:44:29;;;;;;;2.03;1.77;;;;;;;23.91;17.77;101234.66;5025700;28;20408;-73
2023/04/04 10:46:57;;;;;;;3.42;1.73;;;;;;;23.92;17.97;101236.28;5026018;28;20886;-73
2023/04/04 10:49:23;;;;;;;5.17;1.70;;;;;;;24.13;17.64;101237.44;5030822;28;20391;-73
2023/04/04 10:51:50;;;;;;;3.43;1.80;;;;;;;24.39;17.04;101230.09;5013595;28;20730;-72
2023/04/04 10:54:16;;;;;;;3.92;1.83;;;;;;;24.74;17.28;101226.31;5022444;28;20473;-73
2023/04/04 10:56:42;;;;;;;3.13;2.10;;;;;;;25.02;17.43;101218.59;5024199;28;20760;-72
2023/04/04 10:59:09;;;;;;;3.17;1.80;;;;;;;25.18;16.89;101222.53;5019682;28;20404;-74
2023/04/04 11:01:57;;;;;;;3.67;1.50;;;;;;;24.56;16.71;101232.13;5026874;28;20447;-75
2023/04/04 11:04:30;;;;;;;1.73;1.63;;;;;;;24.93;16.01;101225.25;5019919;28;20404;-74
2023/04/04 11:07:15;;;;;;;5.23;1.50;;;;;;;25.10;16.31;101219.72;5027593;28;20418;-75
2023/04/04 11:09:51;;;;;;;6.20;1.80;;;;;;;25.41;16.74;101219.63;5026857;28;20417;-74